Latest Weather Observations for Parkes Airport

IDN60801

Issued at 6:22 am EDT Wednesday 13 November 2019 (issued every 10 minutes, with the page automatically refreshed every 10 minutes)

About weather observations | Map of weather stations | Latest weather observations for NSW | Other Formats
Station Details ID: 065068 Name: PARKES AIRPORT AWS Lat: -33.13 Lon: 148.24 Height: 323.3 m
Data from the previous 72 hours. | See also: Recent months at Parkes Airport
Date/Time
EDT
Temp
°C
App
Temp
°C
Dew
Point
°C
Rel
Hum
%
Delta-T
°C
Wind Press
QNH
hPa
Press
MSL
hPa
Rain since
9am
mm
Dir  Spd
km/h
Gust
km/h
Spd
kts
Gust
kts
13/06:00am 10.0 2.2 -0.5 48 4.2 SSW 30 41 16 22 1016.7 1015.6 0.0
13/05:30am 10.1 3.0 -1.3 45 4.5 SSW 26 32 14 17 1016.1 1015.0 0.0
13/05:00am 10.3 4.8 -2.4 41 4.9 SSW 17 20 9 11 1015.8 1014.7 0.0
13/04:30am 10.3 4.7 -2.7 40 5.0 SW 17 20 9 11 1015.4 1014.2 0.0
13/04:00am 11.9 5.0 -2.3 37 5.6 SSW 24 32 13 17 1015.3 1014.1 0.0
13/03:30am 11.8 5.7 -2.4 37 5.6 SW 20 24 11 13 1015.1 1013.9 0.0
13/03:00am 11.8 6.3 -2.4 37 5.6 SSW 17 22 9 12 1015.0 1013.8 0.0
13/02:30am 9.7 5.1 -4.3 37 5.2 SSW 11 13 6 7 1014.8 1013.6 0.0
13/02:00am 11.6 6.7 -3.7 34 5.9 SSW 13 15 7 8 1014.7 1013.5 0.0
13/01:30am 12.6 7.6 -4.1 31 6.4 SSW 13 17 7 9 1014.6 1013.4 0.0
13/01:00am 14.0 7.4 -3.7 29 7.0 SW 22 28 12 15 1014.6 1013.4 0.0
13/12:30am 14.7 8.4 -4.1 27 7.4 SW 20 24 11 13 1014.5 1013.3 0.0
13/12:00am 15.3 8.2 -4.1 26 7.7 SW 24 30 13 16 1014.4 1013.2 0.0
 
Date/Time
EDT
Temp
°C
App
Temp
°C
Dew
Point
°C
Rel
Hum
%
Delta-T
°C
Wind Press
QNH
hPa
Press
MSL
hPa
Rain since
9am
mm
Dir  Spd
km/h
Gust
km/h
Spd
kts
Gust
kts
12/11:30pm 15.6 9.3 -3.8 26 7.7 SSW 20 28 11 15 1014.2 1013.0 0.0
12/11:00pm 16.0 9.3 -4.0 25 8.0 SW 22 30 12 16 1013.8 1012.7 0.0
12/10:30pm 16.2 10.5 -3.8 25 8.0 SSW 17 22 9 12 1013.5 1012.4 0.0
12/10:00pm 17.0 9.6 -3.7 24 8.4 SW 26 35 14 19 1012.9 1011.8 0.0
12/09:30pm 17.9 9.2 -3.5 23 8.8 SW 33 44 18 24 1012.5 1011.3 0.0
12/09:00pm 18.6 9.2 -2.9 23 9.0 SW 37 52 20 28 1011.9 1010.7 0.0
12/08:30pm 19.5 11.2 -1.6 24 9.1 SW 32 43 17 23 1011.3 1010.1 0.0
12/08:00pm 20.8 11.6 -1.1 23 9.7 SW 37 50 20 27 1010.6 1009.5 0.0
12/07:30pm 22.2 13.2 0.1 23 10.1 WSW 37 48 20 26 1010.0 1008.8 0.0
12/07:00pm 23.2 13.5 0.3 22 10.6 SW 41 54 22 29 1009.4 1008.2 0.0
12/06:30pm 24.5 15.0 -0.6 19 11.6 WSW 39 52 21 28 1008.9 1007.7 0.0
12/06:00pm 24.2 13.3 -1.6 18 11.7 WSW 46 59 25 32 1008.4 1007.2 0.0
12/05:30pm 24.8 14.8 1.0 21 11.3 SW 43 54 23 29 1007.9 1006.7 0.0
12/05:13pm 25.1 15.7 2.5 23 11.1 WSW 41 59 22 32 1007.9 1006.7 0.0
12/05:00pm 24.9 15.2 3.0 24 10.8 WSW 43 59 23 32 1007.7 1006.5 0.0
12/04:31pm 26.0 15.9 3.9 24 11.2 WSW 46 65 25 35 1007.2 1006.0 0.0
12/04:30pm 26.2 16.2 4.1 24 11.2 WSW 46 61 25 33 1007.2 1006.0 0.0
12/04:10pm 26.1 16.3 3.4 23 11.4 SW 44 63 24 34 1006.9 1005.7 0.0
12/04:09pm 26.3 16.5 3.5 23 11.5 SW 44 59 24 32 1006.8 1005.6 0.0
12/04:00pm 26.0 15.2 3.9 24 11.2 SW 50 63 27 34 1006.8 1005.6 0.0
12/03:44pm 27.6 17.9 2.6 20 12.5 WSW 43 57 23 31 1006.4 1005.2 0.0
12/03:30pm 28.3 18.4 -0.8 15 13.7 WSW 41 54 22 29 1006.5 1005.3 0.0
12/03:25pm 28.7 18.7 -1.4 14 14.1 WSW 41 56 22 30 1006.5 1005.3 0.0
12/03:03pm 29.2 17.2 -4.3 11 15.0 WSW 50 69 27 37 1006.3 1005.1 0.0
12/03:00pm 29.4 17.3 -5.4 10 15.3 WSW 50 65 27 35 1006.3 1005.1 0.0
12/02:51pm 30.3 19.8 -6.1 9 15.9 WSW 41 63 22 34 1006.1 1004.9 0.0
12/02:43pm 31.1 20.9 -7.0 8 16.5 W 39 56 21 30 1006.0 1004.8 0.0
12/02:30pm 32.2 21.1 -7.9 7 17.3 WNW 43 57 23 31 1005.8 1004.6 0.0
12/02:12pm 33.9 23.9 -8.7 6 18.4 WNW 37 57 20 31 1005.7 1004.5 0.0
12/02:11pm 33.8 23.8 -8.7 6 18.3 WNW 37 50 20 27 1006.1 1004.9 0.0
12/02:06pm 33.9 23.9 -8.7 6 18.4 NW 37 56 20 30 1006.1 1004.9 0.0
12/02:00pm 33.1 22.3 -9.2 6 18.0 NW 41 56 22 30 1006.2 1005.0 0.0
12/01:41pm 33.2 23.0 -7.2 7 17.8 WNW 39 57 21 31 1006.6 1005.4 0.0
12/01:30pm 32.5 22.2 -7.7 7 17.4 WNW 39 52 21 28 1006.8 1005.6 0.0
12/01:04pm 32.2 21.9 -7.9 7 17.3 NW 39 59 21 32 1007.0 1005.8 0.0
12/01:00pm 32.9 22.6 -7.4 7 17.7 WNW 39 56 21 30 1007.3 1006.1 0.0
12/12:40pm 31.3 20.7 -6.8 8 16.6 WNW 41 61 22 33 1007.6 1006.4 0.0
12/12:30pm 32.1 21.6 -6.3 8 17.0 NW 41 57 22 31 1007.7 1006.5 0.0
12/12:13pm 30.5 19.9 -7.4 8 16.2 NW 41 63 22 34 1007.9 1006.7 0.0
12/12:00pm 31.1 20.9 -7.0 8 16.6 NW 39 56 21 30 1008.2 1007.0 0.0
12/11:30am 31.2 20.4 -5.4 9 16.3 NNW 43 61 23 33 1008.8 1007.6 0.0
12/11:22am 30.5 20.4 -5.9 9 16.0 NNW 39 57 21 31 1008.9 1007.7 0.0
12/11:00am 30.4 19.5 -6.0 9 16.0 NNW 43 56 23 30 1009.2 1008.0 0.0
12/10:39am 29.1 19.2 -4.3 11 14.9 NNW 39 57 21 31 1009.6 1008.4 0.0
12/10:30am 29.3 19.5 -3.0 12 14.8 NNW 39 54 21 29 1009.7 1008.5 0.0
12/10:23am 28.3 18.5 -2.7 13 14.2 NNW 39 54 21 29 1009.7 1008.5 0.0
12/10:00am 27.2 18.2 -2.6 14 13.5 N 35 46 19 25 1010.0 1008.8 0.0
12/09:30am 26.1 17.6 -1.7 16 12.7 N 33 46 18 25 1010.5 1009.4 0.0
12/09:00am 25.6 17.6 -2.1 16 12.5 N 30 41 16 22 1011.0 1009.8 0.0
12/08:30am 23.7 16.9 -2.0 18 11.5 N 24 32 13 17 1011.2 1010.0 0.0
12/08:00am 21.9 14.8 -1.4 21 10.4 N 26 35 14 19 1011.2 1010.0 0.0
12/07:30am 20.0 13.3 -1.2 24 9.3 N 24 32 13 17 1011.0 1009.8 0.0
12/07:00am 17.8 12.5 -0.9 28 8.1 N 17 24 9 13 1011.0 1009.8 0.0
12/06:30am 14.8 11.3 -1.7 32 6.8 NE 7 13 4 7 1010.9 1009.7 0.0
12/06:00am 14.9 11.1 -0.8 34 6.6 N 9 13 5 7 1010.8 1009.6 0.0
12/05:30am 12.6 8.7 -1.3 38 5.7 N 9 11 5 6 1010.9 1009.7 0.0
12/05:00am 12.4 7.7 -1.5 38 5.6 NNE 13 15 7 8 1010.9 1009.7 0.0
12/04:30am 13.8 9.2 -1.4 35 6.3 NNE 13 13 7 7 1011.0 1009.8 0.0
12/04:00am 13.3 9.1 -0.7 38 5.8 NNE 11 13 6 7 1011.2 1010.0 0.0
12/03:30am 12.7 8.6 -0.2 41 5.4 NNE 11 13 6 7 1011.3 1010.1 0.0
12/03:00am 12.2 8.1 -0.3 42 5.2 NE 11 11 6 6 1011.5 1010.3 0.0
12/02:30am 11.7 7.9 -0.4 43 5.0 NE 9 11 5 6 1011.9 1010.7 0.0
12/02:00am 12.0 8.2 -0.5 42 5.2 NE 9 9 5 5 1012.3 1011.1 0.0
12/01:30am 13.2 9.5 -0.1 40 5.6 ENE 9 9 5 5 1012.5 1011.3 0.0
12/01:00am 12.9 9.2 0.0 41 5.4 ENE 9 9 5 5 1013.0 1011.9 0.0
12/12:30am 13.3 9.9 -0.3 39 5.7 NE 7 9 4 5 1013.2 1012.1 0.0
12/12:00am 15.0 11.6 -0.3 35 6.5 NE 7 9 4 5 1013.5 1012.4 0.0
 
Date/Time
EDT
Temp
°C
App
Temp
°C
Dew
Point
°C
Rel
Hum
%
Delta-T
°C
Wind Press
QNH
hPa
Press
MSL
hPa
Rain since
9am
mm
Dir  Spd
km/h
Gust
km/h
Spd
kts
Gust
kts
11/11:30pm 15.3 12.0 -0.1 35 6.6 NE 7 9 4 5 1013.5 1012.4 0.0
11/11:00pm 15.8 12.1 0.0 34 6.8 NE 9 9 5 5 1013.6 1012.5 0.0
11/10:30pm 16.7 13.0 -0.1 32 7.3 NNE 9 11 5 6 1013.7 1012.6 0.0
11/10:00pm 17.2 12.8 0.4 32 7.4 NNE 13 15 7 8 1013.6 1012.5 0.0
11/09:30pm 18.1 13.6 -0.2 29 8.1 NNE 13 15 7 8 1013.5 1012.4 0.0
11/09:00pm 18.6 14.8 -0.7 27 8.5 NNE 9 13 5 7 1013.4 1012.3 0.0
11/08:30pm 19.8 15.5 -1.3 24 9.2 N 11 13 6 7 1013.2 1012.1 0.0
11/08:00pm 21.5 18.0 -1.7 21 10.2 N 7 9 4 5 1013.1 1012.0 0.0
11/07:30pm 23.9 19.5 -2.6 17 11.7 NNW 11 13 6 7 1012.9 1011.8 0.0
11/07:00pm 26.6 21.7 -3.1 14 13.3 NNW 13 19 7 10 1012.7 1011.5 0.0
11/06:30pm 27.5 22.5 -4.4 12 14.0 WNW 13 19 7 10 1012.7 1011.5 0.0
11/06:00pm 27.7 23.1 -4.3 12 14.1 W 11 17 6 9 1012.7 1011.5 0.0
11/05:30pm 28.0 22.4 -3.0 13 14.0 NW 17 30 9 16 1012.9 1011.8 0.0
11/05:00pm 28.1 22.5 -2.9 13 14.1 NW 17 28 9 15 1013.0 1011.9 0.0
11/04:30pm 27.6 23.1 -3.3 13 13.9 NW 11 15 6 8 1013.3 1012.2 0.0
11/04:00pm 26.5 21.1 -4.1 13 13.4 W 15 26 8 14 1013.6 1012.5 0.0
11/03:30pm 27.4 22.4 -1.5 15 13.4 NNW 15 22 8 12 1014.1 1012.9 0.0
11/03:00pm 26.7 22.6 -3.0 14 13.3 NW 9 22 5 12 1014.6 1013.4 0.0
11/02:30pm 27.4 22.4 -1.5 15 13.4 W 15 33 8 18 1015.0 1013.8 0.0
11/02:00pm 26.8 22.0 0.5 18 12.6 WSW 15 24 8 13 1015.6 1014.5 0.0
11/01:30pm 25.9 21.6 1.2 20 11.9 WSW 13 24 7 13 1016.0 1014.9 0.0
11/01:00pm 24.8 20.1 1.0 21 11.3 NW 15 26 8 14 1016.6 1015.5 0.0
11/12:30pm 24.6 20.1 2.1 23 10.9 WSW 15 22 8 12 1017.0 1015.9 0.0
11/12:00pm 23.8 19.8 2.6 25 10.3 SW 13 20 7 11 1017.3 1016.1 0.0
11/11:30am 22.9 18.9 2.9 27 9.7 WNW 13 20 7 11 1017.5 1016.3 0.0
11/11:00am 23.1 19.6 3.6 28 9.6 W 11 22 6 12 1017.5 1016.3 0.0
11/10:30am 21.6 17.8 3.8 31 8.7 W 13 19 7 10 1017.8 1016.6 0.0
11/10:00am 21.4 18.5 4.9 34 8.2 N 9 15 5 8 1017.6 1016.4 0.0
11/09:30am 20.3 17.8 4.8 36 7.7 SW 7 13 4 7 1017.9 1016.7 0.0
11/09:00am 20.7 19.4 5.9 38 7.5 NNE 2 7 1 4 1017.8 1016.6 0.0
11/08:30am 18.0 15.7 5.9 45 6.0 NNE 7 9 4 5 1017.6 1016.4 0.0
11/08:00am 15.7 13.0 5.6 51 4.9 NE 9 11 5 6 1017.3 1016.1 0.0
11/07:30am 13.9 11.2 5.8 58 3.9 ENE 9 13 5 7 1016.9 1015.8 0.0
11/07:00am 10.0 7.5 5.0 71 2.3 NE 7 9 4 5 1016.8 1015.7 0.0
11/06:30am 6.9 4.2 3.9 81 1.3 NNE 7 9 4 5 1016.6 1015.5 0.0
11/06:00am 6.1 2.9 3.1 81 1.3 NNE 9 9 5 5 1016.3 1015.2 0.0
11/05:30am 6.1 2.4 2.4 77 1.5 ENE 11 13 6 7 1016.2 1015.1 0.0
11/05:00am 7.8 4.4 3.8 76 1.8 ENE 11 11 6 6 1016.1 1015.0 0.0
11/04:30am 6.8 3.9 2.7 75 1.7 NE 7 9 4 5 1016.4 1015.3 0.0
11/04:00am 9.3 6.3 4.1 70 2.3 ENE 9 11 5 6 1016.3 1015.2 0.0
11/03:30am 9.1 5.7 4.1 71 2.2 ENE 11 11 6 6 1016.1 1015.0 0.0
11/03:00am 8.7 4.8 3.5 70 2.3 ENE 13 15 7 8 1016.1 1015.0 0.0
11/02:30am 9.3 8.0 3.9 69 2.4 CALM 0 4 0 2 1016.4 1015.3 0.0
11/02:00am 8.7 5.5 2.9 67 2.5 NE 9 11 5 6 1016.5 1015.4 0.0
11/01:30am 10.3 7.3 4.0 65 2.8 ENE 9 11 5 6 1016.6 1015.5 0.0
11/01:00am 10.0 8.6 3.7 65 2.8 CALM 0 2 0 1 1016.7 1015.6 0.0
11/12:30am 11.0 9.6 3.5 60 3.4 CALM 0 0 0 0 1016.9 1015.8 0.0
11/12:00am 11.8 10.5 4.1 59 3.5 CALM 0 0 0 0 1016.9 1015.8 0.0
 
Date/Time
EDT
Temp
°C
App
Temp
°C
Dew
Point
°C
Rel
Hum
%
Delta-T
°C
Wind Press
QNH
hPa
Press
MSL
hPa
Rain since
9am
mm
Dir  Spd
km/h
Gust
km/h
Spd
kts
Gust
kts
10/11:30pm 11.8 10.4 3.8 58 3.6 CALM 0 0 0 0 1016.9 1015.8 0.0
10/11:00pm 12.1 10.4 2.0 50 4.4 CALM 0 0 0 0 1016.7 1015.6 0.0
10/10:30pm 13.9 12.5 3.7 50 4.7 CALM 0 0 0 0 1016.7 1015.6 0.0
10/10:00pm 15.5 14.2 3.9 46 5.4 CALM 0 0 0 0 1016.5 1015.4 0.0
10/09:30pm 16.3 13.2 3.7 43 5.9 SSW 9 11 5 6 1016.3 1015.2 0.0
10/09:00pm 17.0 13.2 3.7 41 6.3 SSW 13 15 7 8 1016.1 1015.0 0.0
10/08:30pm 18.2 14.4 3.7 38 6.9 SSW 13 17 7 9 1015.9 1014.8 0.0
10/08:00pm 19.7 14.7 3.4 34 7.8 SSW 19 24 10 13 1015.6 1014.5 0.0
10/07:30pm 20.6 15.4 3.3 32 8.3 SSW 20 28 11 15 1015.5 1014.3 0.0
10/07:00pm 21.5 15.5 3.2 30 8.9 SW 24 32 13 17 1015.2 1014.0 0.0
10/06:30pm 22.2 15.8 3.3 29 9.2 SW 26 33 14 18 1015.0 1013.8 0.0
10/06:00pm 22.5 16.1 3.1 28 9.4 SW 26 37 14 20 1014.9 1013.7 0.0
10/05:30pm 22.5 16.5 3.1 28 9.4 SW 24 35 13 19 1014.8 1013.6 0.0
10/05:00pm 22.3 15.8 2.9 28 9.4 SW 26 35 14 19 1014.8 1013.6 0.0
10/04:30pm 22.9 16.5 3.4 28 9.6 SW 26 39 14 21 1014.9 1013.7 0.0
10/04:00pm 22.9 16.4 2.9 27 9.7 SW 26 39 14 21 1015.1 1013.9 0.0
10/03:30pm 22.1 15.3 3.3 29 9.2 SW 28 44 15 24 1015.5 1014.3 0.0
10/03:00pm 22.5 16.5 3.6 29 9.3 WSW 24 35 13 19 1015.9 1014.8 0.0
10/02:30pm 20.5 14.4 2.8 31 8.4 SW 24 44 13 24 1016.2 1015.1 0.0
10/02:00pm 21.9 15.6 4.0 31 8.8 SW 26 39 14 21 1016.5 1015.4 0.0
10/01:30pm 20.1 14.9 3.8 34 7.9 SW 20 33 11 18 1016.7 1015.6 0.0
10/01:00pm 19.7 15.1 3.8 35 7.7 WSW 17 30 9 16 1017.0 1015.9 0.0
10/12:30pm 19.3 14.3 3.5 35 7.6 SW 19 39 10 21 1017.3 1016.1 0.0
10/12:00pm 18.0 13.0 3.5 38 6.9 SW 19 32 10 17 1017.5 1016.3 0.0
10/11:30am 16.8 11.7 3.1 40 6.4 SW 19 35 10 19 1017.5 1016.3 0.0
10/11:00am 16.6 11.6 3.7 42 6.1 SSW 19 30 10 16 1018.0 1016.8 0.0
10/10:30am 16.2 11.1 3.9 44 5.8 SW 20 33 11 18 1018.2 1017.0 0.0
10/10:00am 15.6 10.1 4.0 46 5.4 SW 22 41 12 22 1018.1 1016.9 0.0
10/09:30am 14.7 8.8 3.8 48 5.1 S 24 33 13 18 1018.1 1016.9 0.0
10/09:00am 14.1 7.9 4.1 51 4.7 SSW 26 33 14 18 1018.0 1016.8 0.0
10/08:30am 13.1 6.8 4.0 54 4.2 SSW 26 33 14 18 1017.8 1016.6 0.0
10/08:00am 12.6 6.4 4.3 57 3.8 SW 26 32 14 17 1017.4 1016.2 0.0
10/07:30am 11.8 6.8 3.8 58 3.6 SW 19 26 10 14 1017.0 1015.9 0.0
10/07:00am 10.2 7.0 3.0 61 3.2 SSW 9 11 5 6 1016.7 1015.6 0.0
10/06:30am 7.7 4.6 1.5 65 2.6 SSW 7 9 4 5 1016.4 1015.3 0.0

Other formats

Comma delimited format used in spreadsheet applications
http://www.bom.gov.au/fwo/IDN60801/IDN60801.95717.axf

JavaScript Object Notation format (JSON) in row-major order
http://www.bom.gov.au/fwo/IDN60801/IDN60801.95717.json

Data quality

Most of these data are generated automatically and are frequently updated. Quality checks on data are not normally performed. It is possible for incorrect values to appear. Refer to information at About Latest Weather Observations and please check the disclaimer before using these data.